sensor_id;sensor_type;location;lat;lon;timestamp;pressure;altitude;pressure_sealevel;temperature;humidity
6024;BME280;3040;42.654;23.296;2023-04-25T00:01:57;93501.56;;;13.74;88.83
6024;BME280;3040;42.654;23.296;2023-04-25T00:04:27;93492.06;;;13.77;88.28
6024;BME280;3040;42.654;23.296;2023-04-25T00:06:55;93351.50;;;12.82;88.32
6024;BME280;3040;42.654;23.296;2023-04-25T00:09:22;93480.31;;;13.92;87.55
6024;BME280;3040;42.654;23.296;2023-04-25T00:11:49;93472.28;;;13.99;87.89
6024;BME280;3040;42.654;23.296;2023-04-25T00:14:16;93457.41;;;13.98;87.67
6024;BME280;3040;42.654;23.296;2023-04-25T00:16:43;93458.19;;;14.02;87.14
6024;BME280;3040;42.654;23.296;2023-04-25T00:19:10;93438.25;;;13.82;85.70
6024;BME280;3040;42.654;23.296;2023-04-25T00:21:39;93419.06;;;13.62;85.67
6024;BME280;3040;42.654;23.296;2023-04-25T00:24:07;93408.16;;;13.16;84.20
6024;BME280;3040;42.654;23.296;2023-04-25T00:26:34;93435.84;;;13.56;83.86
6024;BME280;3040;42.654;23.296;2023-04-25T00:29:01;93393.81;;;13.45;85.49
6024;BME280;3040;42.654;23.296;2023-04-25T00:31:28;93444.75;;;13.88;84.72
6024;BME280;3040;42.654;23.296;2023-04-25T00:33:55;93443.22;;;13.87;83.65
6024;BME280;3040;42.654;23.296;2023-04-25T00:36:22;93441.31;;;13.88;84.86
6024;BME280;3040;42.654;23.296;2023-04-25T00:38:50;93445.91;;;13.94;84.78
6024;BME280;3040;42.654;23.296;2023-04-25T00:41:18;93444.41;;;14.00;84.54
6024;BME280;3040;42.654;23.296;2023-04-25T00:43:47;93436.78;;;14.06;84.61
6024;BME280;3040;42.654;23.296;2023-04-25T00:46:14;93411.50;;;13.82;84.16
6024;BME280;3040;42.654;23.296;2023-04-25T00:48:41;93446.72;;;13.98;84.88
6024;BME280;3040;42.654;23.296;2023-04-25T00:51:15;93435.56;;;13.82;85.91
6024;BME280;3040;42.654;23.296;2023-04-25T00:53:43;93331.16;;;13.22;86.65
6024;BME280;3040;42.654;23.296;2023-04-25T00:56:12;93435.19;;;13.87;87.12
6024;BME280;3040;42.654;23.296;2023-04-25T00:58:40;93434.44;;;13.83;88.25
6024;BME280;3040;42.654;23.296;2023-04-25T01:01:08;93443.50;;;13.61;88.33
6024;BME280;3040;42.654;23.296;2023-04-25T01:03:37;93442.34;;;13.00;91.49
6024;BME280;3040;42.654;23.296;2023-04-25T01:06:08;93432.91;;;12.58;92.03
6024;BME280;3040;42.654;23.296;2023-04-25T01:08:36;93406.84;;;12.41;94.38
6024;BME280;3040;42.654;23.296;2023-04-25T01:11:03;93418.88;;;12.69;95.13
6024;BME280;3040;42.654;23.296;2023-04-25T01:13:32;93421.72;;;12.90;94.86
6024;BME280;3040;42.654;23.296;2023-04-25T01:15:59;93426.44;;;13.14;93.80
6024;BME280;3040;42.654;23.296;2023-04-25T01:18:26;93374.56;;;13.12;92.40
6024;BME280;3040;42.654;23.296;2023-04-25T01:20:54;93276.31;;;12.62;91.45
6024;BME280;3040;42.654;23.296;2023-04-25T01:23:22;93411.41;;;13.57;90.89
6024;BME280;3040;42.654;23.296;2023-04-25T01:25:50;93408.44;;;13.73;89.40
6024;BME280;3040;42.654;23.296;2023-04-25T01:28:17;93415.31;;;13.81;89.16
6024;BME280;3040;42.654;23.296;2023-04-25T01:30:44;93416.53;;;13.15;91.32
6024;BME280;3040;42.654;23.296;2023-04-25T01:33:12;93402.88;;;13.27;91.29
6024;BME280;3040;42.654;23.296;2023-04-25T01:35:40;93415.19;;;13.45;91.26
6024;BME280;3040;42.654;23.296;2023-04-25T01:38:08;93366.88;;;13.03;91.24
6024;BME280;3040;42.654;23.296;2023-04-25T01:40:38;93367.06;;;13.31;89.82
6024;BME280;3040;42.654;23.296;2023-04-25T01:43:06;93425.97;;;13.70;89.52
6024;BME280;3040;42.654;23.296;2023-04-25T01:45:33;93417.63;;;13.10;90.70
6024;BME280;3040;42.654;23.296;2023-04-25T01:48:02;93274.63;;;12.33;90.27
6024;BME280;3040;42.654;23.296;2023-04-25T01:50:29;93415.53;;;13.40;89.80
6024;BME280;3040;42.654;23.296;2023-04-25T01:52:56;93433.19;;;13.56;89.17
6024;BME280;3040;42.654;23.296;2023-04-25T01:55:23;93414.44;;;13.49;89.21
6024;BME280;3040;42.654;23.296;2023-04-25T01:57:51;93434.31;;;13.55;89.18
6024;BME280;3040;42.654;23.296;2023-04-25T02:00:18;93391.50;;;13.37;89.86
6024;BME280;3040;42.654;23.296;2023-04-25T02:02:46;93417.59;;;13.72;88.83
6024;BME280;3040;42.654;23.296;2023-04-25T02:05:13;93374.75;;;13.47;89.21
6024;BME280;3040;42.654;23.296;2023-04-25T02:07:40;93414.78;;;13.36;89.99
6024;BME280;3040;42.654;23.296;2023-04-25T02:10:07;93427.44;;;13.57;89.37
6024;BME280;3040;42.654;23.296;2023-04-25T02:12:35;93319.56;;;12.93;88.94
6024;BME280;3040;42.654;23.296;2023-04-25T02:15:04;93404.63;;;13.77;88.42
6024;BME280;3040;42.654;23.296;2023-04-25T02:17:32;93387.47;;;13.82;88.93
6024;BME280;3040;42.654;23.296;2023-04-25T02:19:59;93394.38;;;13.90;88.22
6024;BME280;3040;42.654;23.296;2023-04-25T02:22:26;93361.09;;;13.70;87.61
6024;BME280;3040;42.654;23.296;2023-04-25T02:24:55;93392.50;;;14.01;87.71
6024;BME280;3040;42.654;23.296;2023-04-25T02:27:22;93387.91;;;13.98;86.60
6024;BME280;3040;42.654;23.296;2023-04-25T02:29:49;93393.19;;;13.77;86.52
6024;BME280;3040;42.654;23.296;2023-04-25T02:32:17;93392.34;;;13.59;86.66
6024;BME280;3040;42.654;23.296;2023-04-25T02:34:44;93354.91;;;13.52;86.65
6024;BME280;3040;42.654;23.296;2023-04-25T02:37:11;93382.13;;;13.82;85.84
6024;BME280;3040;42.654;23.296;2023-04-25T02:39:37;93357.19;;;13.42;86.13
6024;BME280;3040;42.654;23.296;2023-04-25T02:42:04;93377.84;;;13.60;86.34
6024;BME280;3040;42.654;23.296;2023-04-25T02:44:34;93378.63;;;13.64;86.22
6024;BME280;3040;42.654;23.296;2023-04-25T02:47:01;93377.88;;;13.70;86.04
6024;BME280;3040;42.654;23.296;2023-04-25T02:49:29;93352.16;;;13.27;86.55
6024;BME280;3040;42.654;23.296;2023-04-25T02:51:57;93328.78;;;13.06;85.98
6024;BME280;3040;42.654;23.296;2023-04-25T02:54:24;93370.06;;;13.26;86.49
6024;BME280;3040;42.654;23.296;2023-04-25T02:56:51;93343.03;;;13.31;85.93
6024;BME280;3040;42.654;23.296;2023-04-25T02:59:19;93332.66;;;13.12;85.80
6024;BME280;3040;42.654;23.296;2023-04-25T03:01:46;93359.38;;;13.19;85.49
6024;BME280;3040;42.654;23.296;2023-04-25T03:04:13;93327.63;;;13.11;86.14
6024;BME280;3040;42.654;23.296;2023-04-25T03:06:41;93351.75;;;13.21;85.55
6024;BME280;3040;42.654;23.296;2023-04-25T03:09:08;93352.91;;;13.27;85.31
6024;BME280;3040;42.654;23.296;2023-04-25T03:11:35;93194.91;;;12.14;85.33
6024;BME280;3040;42.654;23.296;2023-04-25T03:14:02;93340.78;;;12.72;85.06
6024;BME280;3040;42.654;23.296;2023-04-25T03:16:29;93339.72;;;12.83;85.29
6024;BME280;3040;42.654;23.296;2023-04-25T03:18:56;93349.91;;;12.71;86.22
6024;BME280;3040;42.654;23.296;2023-04-25T03:21:23;93335.88;;;12.77;86.96
6024;BME280;3040;42.654;23.296;2023-04-25T03:23:51;93349.59;;;12.28;87.39
6024;BME280;3040;42.654;23.296;2023-04-25T03:26:18;93347.50;;;12.04;91.07
6024;BME280;3040;42.654;23.296;2023-04-25T03:28:45;93302.91;;;12.01;90.68
6024;BME280;3040;42.654;23.296;2023-04-25T03:31:14;93351.16;;;11.55;92.54
6024;BME280;3040;42.654;23.296;2023-04-25T03:33:40;93336.72;;;11.56;94.20
6024;BME280;3040;42.654;23.296;2023-04-25T03:36:08;93339.28;;;11.82;92.98
6024;BME280;3040;42.654;23.296;2023-04-25T03:38:35;93349.59;;;11.88;92.84
6024;BME280;3040;42.654;23.296;2023-04-25T03:41:03;93226.47;;;11.24;92.19
6024;BME280;3040;42.654;23.296;2023-04-25T03:43:30;93307.53;;;12.04;92.14
6024;BME280;3040;42.654;23.296;2023-04-25T03:45:57;93352.66;;;12.30;91.14
6024;BME280;3040;42.654;23.296;2023-04-25T03:48:25;93341.19;;;12.26;92.10
6024;BME280;3040;42.654;23.296;2023-04-25T03:50:52;93333.13;;;12.15;92.63
6024;BME280;3040;42.654;23.296;2023-04-25T03:53:18;93336.16;;;12.14;93.27
6024;BME280;3040;42.654;23.296;2023-04-25T03:55:45;93330.91;;;12.24;93.93
6024;BME280;3040;42.654;23.296;2023-04-25T03:58:13;93323.06;;;12.46;93.53
6024;BME280;3040;42.654;23.296;2023-04-25T04:00:40;93337.34;;;12.75;92.37
6024;BME280;3040;42.654;23.296;2023-04-25T04:03:07;93059.47;;;11.10;91.21
6024;BME280;3040;42.654;23.296;2023-04-25T04:05:34;93353.16;;;13.08;91.41
6024;BME280;3040;42.654;23.296;2023-04-25T04:08:04;93359.34;;;13.12;90.54
6024;BME280;3040;42.654;23.296;2023-04-25T04:10:31;93358.69;;;12.71;90.57
6024;BME280;3040;42.654;23.296;2023-04-25T04:12:58;93347.81;;;13.01;90.28
6024;BME280;3040;42.654;23.296;2023-04-25T04:15:26;93325.69;;;13.00;90.70
6024;BME280;3040;42.654;23.296;2023-04-25T04:17:53;93360.16;;;13.23;90.10
6024;BME280;3040;42.654;23.296;2023-04-25T04:20:20;93361.41;;;13.43;90.55
6024;BME280;3040;42.654;23.296;2023-04-25T04:22:47;93322.78;;;13.27;90.13
6024;BME280;3040;42.654;23.296;2023-04-25T04:25:14;93348.13;;;13.72;89.88
6024;BME280;3040;42.654;23.296;2023-04-25T04:27:40;93346.59;;;13.67;89.58
6024;BME280;3040;42.654;23.296;2023-04-25T04:30:10;93247.16;;;13.09;89.32
6024;BME280;3040;42.654;23.296;2023-04-25T04:32:39;93360.75;;;13.82;88.93
6024;BME280;3040;42.654;23.296;2023-04-25T04:35:06;93355.34;;;13.61;88.63
6024;BME280;3040;42.654;23.296;2023-04-25T04:37:34;93323.19;;;12.67;91.14
6024;BME280;3040;42.654;23.296;2023-04-25T04:40:02;93325.66;;;12.93;91.10
6024;BME280;3040;42.654;23.296;2023-04-25T04:42:31;93348.28;;;13.14;91.14
6024;BME280;3040;42.654;23.296;2023-04-25T04:44:58;93340.97;;;13.07;91.06
6024;BME280;3040;42.654;23.296;2023-04-25T04:47:26;93335.00;;;13.24;91.12
6024;BME280;3040;42.654;23.296;2023-04-25T04:49:58;93338.88;;;13.41;91.30
6024;BME280;3040;42.654;23.296;2023-04-25T04:52:24;93339.69;;;13.59;91.61
6024;BME280;3040;42.654;23.296;2023-04-25T04:54:51;93349.59;;;13.55;89.95
6024;BME280;3040;42.654;23.296;2023-04-25T04:57:18;93364.19;;;13.79;90.54
6024;BME280;3040;42.654;23.296;2023-04-25T04:59:45;93363.44;;;13.85;90.79
6024;BME280;3040;42.654;23.296;2023-04-25T05:02:12;93375.63;;;13.72;88.51
6024;BME280;3040;42.654;23.296;2023-04-25T05:04:39;93311.38;;;13.37;87.93
6024;BME280;3040;42.654;23.296;2023-04-25T05:07:07;93351.16;;;13.56;87.89
6024;BME280;3040;42.654;23.296;2023-04-25T05:09:35;93386.97;;;13.52;87.32
6024;BME280;3040;42.654;23.296;2023-04-25T05:12:02;93374.75;;;13.43;87.81
6024;BME280;3040;42.654;23.296;2023-04-25T05:14:30;93392.69;;;13.47;87.85
6024;BME280;3040;42.654;23.296;2023-04-25T05:16:57;93362.41;;;13.21;89.97
6024;BME280;3040;42.654;23.296;2023-04-25T05:19:24;93382.81;;;13.54;90.00
6024;BME280;3040;42.654;23.296;2023-04-25T05:21:51;93387.56;;;13.13;91.23
6024;BME280;3040;42.654;23.296;2023-04-25T05:24:20;93373.84;;;13.18;91.12
6024;BME280;3040;42.654;23.296;2023-04-25T05:26:47;93374.72;;;13.36;90.82
6024;BME280;3040;42.654;23.296;2023-04-25T05:29:13;93383.16;;;13.49;90.54
6024;BME280;3040;42.654;23.296;2023-04-25T05:31:40;93386.63;;;13.64;90.29
6024;BME280;3040;42.654;23.296;2023-04-25T05:34:07;93391.66;;;13.83;90.30
6024;BME280;3040;42.654;23.296;2023-04-25T05:36:34;93377.09;;;13.59;87.11
6024;BME280;3040;42.654;23.296;2023-04-25T05:39:01;93385.94;;;13.74;88.65
6024;BME280;3040;42.654;23.296;2023-04-25T05:41:31;93385.22;;;13.91;89.10
6024;BME280;3040;42.654;23.296;2023-04-25T05:43:57;93385.97;;;13.95;88.84
6024;BME280;3040;42.654;23.296;2023-04-25T05:46:25;93355.66;;;13.41;88.36
6024;BME280;3040;42.654;23.296;2023-04-25T05:48:51;93391.69;;;13.90;88.67
6024;BME280;3040;42.654;23.296;2023-04-25T05:51:19;93384.09;;;14.06;88.29
6024;BME280;3040;42.654;23.296;2023-04-25T05:53:46;93388.66;;;14.02;88.17
6024;BME280;3040;42.654;23.296;2023-04-25T05:56:13;93376.59;;;13.32;88.69
6024;BME280;3040;42.654;23.296;2023-04-25T05:58:41;93383.19;;;13.56;89.85
6024;BME280;3040;42.654;23.296;2023-04-25T06:01:08;93396.13;;;13.43;89.52
6024;BME280;3040;42.654;23.296;2023-04-25T06:03:35;93398.06;;;13.50;89.78
6024;BME280;3040;42.654;23.296;2023-04-25T06:06:03;93380.81;;;13.40;89.90
6024;BME280;3040;42.654;23.296;2023-04-25T06:08:31;93374.72;;;12.75;92.98
6024;BME280;3040;42.654;23.296;2023-04-25T06:10:58;93361.38;;;12.75;92.71
6024;BME280;3040;42.654;23.296;2023-04-25T06:13:25;93390.06;;;12.88;92.36
6024;BME280;3040;42.654;23.296;2023-04-25T06:15:53;93383.53;;;12.86;93.36
6024;BME280;3040;42.654;23.296;2023-04-25T06:18:20;93382.47;;;12.94;92.52
6024;BME280;3040;42.654;23.296;2023-04-25T06:20:46;93370.63;;;12.91;91.80
6024;BME280;3040;42.654;23.296;2023-04-25T06:23:14;93380.00;;;13.26;92.44
6024;BME280;3040;42.654;23.296;2023-04-25T06:25:41;93392.34;;;13.55;92.16
6024;BME280;3040;42.654;23.296;2023-04-25T06:28:09;93375.63;;;13.79;91.37
6024;BME280;3040;42.654;23.296;2023-04-25T06:30:36;93390.94;;;14.00;89.14
6024;BME280;3040;42.654;23.296;2023-04-25T06:33:04;93397.44;;;13.99;87.57
6024;BME280;3040;42.654;23.296;2023-04-25T06:35:31;93397.88;;;14.22;88.52
6024;BME280;3040;42.654;23.296;2023-04-25T06:37:58;93396.41;;;14.39;88.58
6024;BME280;3040;42.654;23.296;2023-04-25T06:40:25;93386.41;;;14.18;85.64
6024;BME280;3040;42.654;23.296;2023-04-25T06:42:52;93411.25;;;14.15;85.91
6024;BME280;3040;42.654;23.296;2023-04-25T06:45:19;93407.78;;;14.11;85.60
6024;BME280;3040;42.654;23.296;2023-04-25T06:47:46;93380.16;;;13.65;85.45
6024;BME280;3040;42.654;23.296;2023-04-25T06:50:14;93396.28;;;13.86;86.66
6024;BME280;3040;42.654;23.296;2023-04-25T06:52:41;93409.63;;;13.82;86.27
6024;BME280;3040;42.654;23.296;2023-04-25T06:55:08;93407.72;;;13.90;85.13
6024;BME280;3040;42.654;23.296;2023-04-25T06:57:35;93400.88;;;13.96;86.29
6024;BME280;3040;42.654;23.296;2023-04-25T07:00:03;93397.47;;;14.17;87.09
6024;BME280;3040;42.654;23.296;2023-04-25T07:02:33;93378.34;;;13.90;86.72
6024;BME280;3040;42.654;23.296;2023-04-25T07:05:00;93410.81;;;14.06;84.86
6024;BME280;3040;42.654;23.296;2023-04-25T07:07:30;93406.63;;;14.12;85.19
6024;BME280;3040;42.654;23.296;2023-04-25T07:09:57;93403.56;;;13.96;84.14
6024;BME280;3040;42.654;23.296;2023-04-25T07:12:24;93399.34;;;13.95;85.71
6024;BME280;3040;42.654;23.296;2023-04-25T07:14:51;93398.59;;;14.05;86.09
6024;BME280;3040;42.654;23.296;2023-04-25T07:17:18;93409.72;;;14.14;85.94
6024;BME280;3040;42.654;23.296;2023-04-25T07:19:45;93413.94;;;14.22;85.38
6024;BME280;3040;42.654;23.296;2023-04-25T07:22:12;93377.66;;;14.53;86.38
6024;BME280;3040;42.654;23.296;2023-04-25T07:24:40;93396.78;;;14.87;85.68
6024;BME280;3040;42.654;23.296;2023-04-25T07:27:07;93397.13;;;15.18;85.23
6024;BME280;3040;42.654;23.296;2023-04-25T07:29:34;93360.03;;;15.05;84.03
6024;BME280;3040;42.654;23.296;2023-04-25T07:32:03;93399.72;;;15.46;82.44
6024;BME280;3040;42.654;23.296;2023-04-25T07:34:30;93383.22;;;15.65;83.42
6024;BME280;3040;42.654;23.296;2023-04-25T07:36:57;93385.47;;;15.84;81.84
6024;BME280;3040;42.654;23.296;2023-04-25T07:39:25;93394.69;;;15.69;80.23
6024;BME280;3040;42.654;23.296;2023-04-25T07:41:53;93385.19;;;15.40;80.36
6024;BME280;3040;42.654;23.296;2023-04-25T07:44:20;93386.78;;;15.30;80.51
6024;BME280;3040;42.654;23.296;2023-04-25T07:46:47;93380.94;;;15.64;82.32
6024;BME280;3040;42.654;23.296;2023-04-25T07:49:15;93380.22;;;15.49;78.76
6024;BME280;3040;42.654;23.296;2023-04-25T07:51:41;93384.41;;;15.50;80.71
6024;BME280;3040;42.654;23.296;2023-04-25T07:54:09;93377.66;;;15.06;79.20
6024;BME280;3040;42.654;23.296;2023-04-25T07:56:35;93384.81;;;15.45;81.80
6024;BME280;3040;42.654;23.296;2023-04-25T07:59:03;93348.06;;;15.45;79.46
6024;BME280;3040;42.654;23.296;2023-04-25T08:01:30;93374.34;;;15.82;78.72
6024;BME280;3040;42.654;23.296;2023-04-25T08:03:57;93372.31;;;16.08;79.54
6024;BME280;3040;42.654;23.296;2023-04-25T08:06:24;93376.34;;;16.37;80.11
6024;BME280;3040;42.654;23.296;2023-04-25T08:08:51;93372.31;;;16.66;76.18
6024;BME280;3040;42.654;23.296;2023-04-25T08:11:17;93366.59;;;16.57;74.13
6024;BME280;3040;42.654;23.296;2023-04-25T08:13:45;93378.16;;;16.47;74.21
6024;BME280;3040;42.654;23.296;2023-04-25T08:16:13;93380.34;;;16.66;72.14
6024;BME280;3040;42.654;23.296;2023-04-25T08:18:42;93367.09;;;16.45;73.19
6024;BME280;3040;42.654;23.296;2023-04-25T08:21:08;93373.38;;;16.76;75.30
6024;BME280;3040;42.654;23.296;2023-04-25T08:23:36;93370.13;;;16.99;72.46
6024;BME280;3040;42.654;23.296;2023-04-25T08:26:03;93368.44;;;17.12;73.35
6024;BME280;3040;42.654;23.296;2023-04-25T08:28:31;93369.13;;;17.23;70.74
6024;BME280;3040;42.654;23.296;2023-04-25T08:30:58;93367.06;;;17.34;71.98
6024;BME280;3040;42.654;23.296;2023-04-25T08:33:26;93372.16;;;17.25;70.31
6024;BME280;3040;42.654;23.296;2023-04-25T08:35:54;93375.13;;;17.34;72.15
6024;BME280;3040;42.654;23.296;2023-04-25T08:38:21;93381.28;;;17.31;72.00
6024;BME280;3040;42.654;23.296;2023-04-25T08:40:49;93357.59;;;16.30;71.16
6024;BME280;3040;42.654;23.296;2023-04-25T08:43:18;93366.78;;;16.33;65.50
6024;BME280;3040;42.654;23.296;2023-04-25T08:45:46;93359.25;;;16.13;68.53
6024;BME280;3040;42.654;23.296;2023-04-25T08:48:15;93367.81;;;16.46;72.47
6024;BME280;3040;42.654;23.296;2023-04-25T08:50:46;93353.84;;;16.76;73.46
6024;BME280;3040;42.654;23.296;2023-04-25T08:53:16;93347.69;;;17.16;80.92
6024;BME280;3040;42.654;23.296;2023-04-25T08:55:45;93344.72;;;17.75;82.51
6024;BME280;3040;42.654;23.296;2023-04-25T08:58:13;93345.88;;;18.04;75.76
6024;BME280;3040;42.654;23.296;2023-04-25T09:00:40;93328.47;;;18.12;73.79
6024;BME280;3040;42.654;23.296;2023-04-25T09:03:07;93344.59;;;18.66;75.32
6024;BME280;3040;42.654;23.296;2023-04-25T09:05:34;93346.25;;;18.83;69.60
6024;BME280;3040;42.654;23.296;2023-04-25T09:08:03;93353.56;;;18.83;70.11
6024;BME280;3040;42.654;23.296;2023-04-25T09:10:30;93343.66;;;18.99;71.13
6024;BME280;3040;42.654;23.296;2023-04-25T09:13:05;93345.25;;;19.40;69.46
6024;BME280;3040;42.654;23.296;2023-04-25T09:15:32;93332.25;;;19.35;66.91
6024;BME280;3040;42.654;23.296;2023-04-25T09:17:59;93357.31;;;19.55;59.23
6024;BME280;3040;42.654;23.296;2023-04-25T09:20:26;93349.16;;;19.35;63.17
6024;BME280;3040;42.654;23.296;2023-04-25T09:23:05;93352.78;;;19.05;63.91
6024;BME280;3040;42.654;23.296;2023-04-25T09:25:36;93339.28;;;18.86;64.31
6024;BME280;3040;42.654;23.296;2023-04-25T09:28:05;93333.84;;;18.66;66.04
6024;BME280;3040;42.654;23.296;2023-04-25T09:30:33;93341.72;;;18.26;63.49
6024;BME280;3040;42.654;23.296;2023-04-25T09:33:08;93315.94;;;17.41;53.96
6024;BME280;3040;42.654;23.296;2023-04-25T09:35:36;93335.84;;;17.44;62.36
6024;BME280;3040;42.654;23.296;2023-04-25T09:38:11;93353.25;;;17.36;65.08
6024;BME280;3040;42.654;23.296;2023-04-25T09:40:43;93351.88;;;16.76;63.08
6024;BME280;3040;42.654;23.296;2023-04-25T09:43:10;93346.28;;;16.56;70.08
6024;BME280;3040;42.654;23.296;2023-04-25T09:45:41;93313.03;;;16.40;72.65
6024;BME280;3040;42.654;23.296;2023-04-25T09:48:11;93325.06;;;16.73;71.28
6024;BME280;3040;42.654;23.296;2023-04-25T09:50:38;93311.16;;;16.85;69.52
6024;BME280;3040;42.654;23.296;2023-04-25T09:53:06;93326.25;;;17.09;65.31
6024;BME280;3040;42.654;23.296;2023-04-25T09:55:34;93326.75;;;17.34;62.21
6024;BME280;3040;42.654;23.296;2023-04-25T09:58:05;93314.91;;;17.62;63.18
6024;BME280;3040;42.654;23.296;2023-04-25T10:00:33;93311.41;;;17.31;61.67
6024;BME280;3040;42.654;23.296;2023-04-25T10:03:01;93323.78;;;17.25;59.08
6024;BME280;3040;42.654;23.296;2023-04-25T10:05:32;93337.38;;;17.11;56.05
6024;BME280;3040;42.654;23.296;2023-04-25T10:08:02;93330.22;;;16.94;56.76
6024;BME280;3040;42.654;23.296;2023-04-25T10:10:30;93315.53;;;16.16;56.16
6024;BME280;3040;42.654;23.296;2023-04-25T10:13:04;93348.00;;;15.63;56.77
6024;BME280;3040;42.654;23.296;2023-04-25T10:15:33;93366.53;;;15.19;62.90
6024;BME280;3040;42.654;23.296;2023-04-25T10:18:01;93354.31;;;14.89;64.54
6024;BME280;3040;42.654;23.296;2023-04-25T10:20:30;93308.47;;;14.23;69.76
6024;BME280;3040;42.654;23.296;2023-04-25T10:23:03;93322.22;;;14.36;71.21
6024;BME280;3040;42.654;23.296;2023-04-25T10:25:33;93320.69;;;14.92;69.54
6024;BME280;3040;42.654;23.296;2023-04-25T10:28:00;93304.00;;;15.57;68.97
6024;BME280;3040;42.654;23.296;2023-04-25T10:30:31;93314.69;;;16.26;65.56
6024;BME280;3040;42.654;23.296;2023-04-25T10:32:58;93314.28;;;16.80;60.47
6024;BME280;3040;42.654;23.296;2023-04-25T10:35:27;93315.19;;;17.37;56.70
6024;BME280;3040;42.654;23.296;2023-04-25T10:38:03;93307.53;;;17.70;56.73
6024;BME280;3040;42.654;23.296;2023-04-25T10:40:30;93318.78;;;17.61;53.43
6024;BME280;3040;42.654;23.296;2023-04-25T10:43:33;93317.16;;;16.99;51.68
6024;BME280;3040;42.654;23.296;2023-04-25T10:46:01;93311.59;;;16.80;52.49
6024;BME280;3040;42.654;23.296;2023-04-25T10:48:30;93322.16;;;16.97;55.35
6024;BME280;3040;42.654;23.296;2023-04-25T10:51:09;93315.94;;;17.41;58.32
6024;BME280;3040;42.654;23.296;2023-04-25T10:53:37;93320.13;;;17.76;59.52
6024;BME280;3040;42.654;23.296;2023-04-25T10:56:10;93328.69;;;17.68;54.04
6024;BME280;3040;42.654;23.296;2023-04-25T10:58:42;93330.47;;;17.10;52.48
6024;BME280;3040;42.654;23.296;2023-04-25T11:01:11;93302.16;;;17.02;50.70
6024;BME280;3040;42.654;23.296;2023-04-25T11:03:41;93320.41;;;17.52;52.45
6024;BME280;3040;42.654;23.296;2023-04-25T11:06:18;93323.00;;;18.19;49.99
6024;BME280;3040;42.654;23.296;2023-04-25T11:08:48;93318.84;;;18.65;49.48
6024;BME280;3040;42.654;23.296;2023-04-25T11:11:16;93304.75;;;19.63;47.64
6024;BME280;3040;42.654;23.296;2023-04-25T11:13:43;93299.28;;;20.03;50.25
6024;BME280;3040;42.654;23.296;2023-04-25T11:16:11;93295.91;;;20.15;47.33
6024;BME280;3040;42.654;23.296;2023-04-25T11:18:40;93290.34;;;20.22;45.41
6024;BME280;3040;42.654;23.296;2023-04-25T11:21:08;93281.50;;;20.05;47.65
6024;BME280;3040;42.654;23.296;2023-04-25T11:23:35;93299.53;;;20.08;47.68
6024;BME280;3040;42.654;23.296;2023-04-25T11:26:03;93300.88;;;19.64;47.47
6024;BME280;3040;42.654;23.296;2023-04-25T11:28:30;93295.63;;;19.57;48.99
6024;BME280;3040;42.654;23.296;2023-04-25T11:30:56;93294.34;;;19.42;50.33
6024;BME280;3040;42.654;23.296;2023-04-25T11:33:26;93302.72;;;19.08;50.76
6024;BME280;3040;42.654;23.296;2023-04-25T11:35:54;93318.34;;;18.47;50.80
6024;BME280;3040;42.654;23.296;2023-04-25T11:38:22;93304.50;;;17.95;54.53
6024;BME280;3040;42.654;23.296;2023-04-25T11:40:52;93308.53;;;17.15;55.12
6024;BME280;3040;42.654;23.296;2023-04-25T11:43:20;93326.56;;;16.81;58.63
6024;BME280;3040;42.654;23.296;2023-04-25T11:45:48;93331.84;;;15.81;61.67
6024;BME280;3040;42.654;23.296;2023-04-25T11:48:16;93327.56;;;15.00;64.16
6024;BME280;3040;42.654;23.296;2023-04-25T11:50:44;93321.50;;;14.43;66.43
6024;BME280;3040;42.654;23.296;2023-04-25T11:53:11;93345.19;;;14.58;66.05
6024;BME280;3040;42.654;23.296;2023-04-25T11:55:38;93308.50;;;14.38;68.68
6024;BME280;3040;42.654;23.296;2023-04-25T11:58:05;93299.31;;;14.53;70.95
6024;BME280;3040;42.654;23.296;2023-04-25T12:00:34;93306.53;;;14.84;72.09
6024;BME280;3040;42.654;23.296;2023-04-25T12:03:01;93302.13;;;15.43;76.66
6024;BME280;3040;42.654;23.296;2023-04-25T12:05:30;93288.00;;;16.09;76.89
6024;BME280;3040;42.654;23.296;2023-04-25T12:08:09;93291.28;;;16.31;73.98
6024;BME280;3040;42.654;23.296;2023-04-25T12:10:37;93291.91;;;16.93;73.46
6024;BME280;3040;42.654;23.296;2023-04-25T12:13:21;93296.06;;;17.66;69.87
6024;BME280;3040;42.654;23.296;2023-04-25T12:15:48;93271.09;;;17.92;67.40
6024;BME280;3040;42.654;23.296;2023-04-25T12:18:19;93286.72;;;18.27;68.16
6024;BME280;3040;42.654;23.296;2023-04-25T12:20:46;93300.13;;;18.31;64.83
6024;BME280;3040;42.654;23.296;2023-04-25T12:23:15;93289.56;;;18.44;64.81
6024;BME280;3040;42.654;23.296;2023-04-25T12:25:43;93278.91;;;18.60;66.15
6024;BME280;3040;42.654;23.296;2023-04-25T12:28:12;93282.19;;;18.71;64.27
6024;BME280;3040;42.654;23.296;2023-04-25T12:30:54;93302.53;;;18.95;61.92
6024;BME280;3040;42.654;23.296;2023-04-25T12:33:23;93337.97;;;17.94;61.55
6024;BME280;3040;42.654;23.296;2023-04-25T12:35:49;93311.00;;;17.67;63.41
6024;BME280;3040;42.654;23.296;2023-04-25T12:38:25;93339.19;;;17.21;63.85
6024;BME280;3040;42.654;23.296;2023-04-25T12:40:53;93337.31;;;16.22;64.78
6024;BME280;3040;42.654;23.296;2023-04-25T12:43:20;93351.41;;;16.37;65.45
6024;BME280;3040;42.654;23.296;2023-04-25T12:45:48;93350.03;;;15.27;68.44
6024;BME280;3040;42.654;23.296;2023-04-25T12:48:16;93325.31;;;14.56;69.28
6024;BME280;3040;42.654;23.296;2023-04-25T12:50:43;93354.75;;;14.42;72.23
6024;BME280;3040;42.654;23.296;2023-04-25T12:53:10;93370.41;;;14.61;70.66
6024;BME280;3040;42.654;23.296;2023-04-25T12:55:38;93331.81;;;14.62;73.52
6024;BME280;3040;42.654;23.296;2023-04-25T12:58:05;93373.38;;;15.20;71.73
6024;BME280;3040;42.654;23.296;2023-04-25T13:00:32;93375.28;;;15.30;72.24
6024;BME280;3040;42.654;23.296;2023-04-25T13:03:00;93374.41;;;15.68;72.73
6024;BME280;3040;42.654;23.296;2023-04-25T13:05:28;93373.19;;;15.83;71.55
6024;BME280;3040;42.654;23.296;2023-04-25T13:07:55;93382.50;;;15.47;71.17
6024;BME280;3040;42.654;23.296;2023-04-25T13:10:22;93365.06;;;14.82;75.25
6024;BME280;3040;42.654;23.296;2023-04-25T13:12:50;93367.34;;;14.94;78.16
6024;BME280;3040;42.654;23.296;2023-04-25T13:15:17;93374.94;;;14.07;80.08